sensor_id;sensor_type;location;lat;lon;timestamp;pressure;altitude;pressure_sealevel;temperature;humidity
5755;BME280;2902;42.130;24.732;2023-08-06T00:00:13;98089.19;;;26.93;82.72
5755;BME280;2902;42.130;24.732;2023-08-06T00:02:41;98095.13;;;26.95;82.34
5755;BME280;2902;42.130;24.732;2023-08-06T00:05:08;98081.53;;;26.54;84.17
5755;BME280;2902;42.130;24.732;2023-08-06T00:07:34;98077.19;;;26.53;84.39
5755;BME280;2902;42.130;24.732;2023-08-06T00:10:01;98071.38;;;26.63;83.93
5755;BME280;2902;42.130;24.732;2023-08-06T00:12:28;98069.38;;;26.72;83.49
5755;BME280;2902;42.130;24.732;2023-08-06T00:14:55;98068.47;;;26.80;83.12
5755;BME280;2902;42.130;24.732;2023-08-06T00:17:21;98071.00;;;26.85;82.72
5755;BME280;2902;42.130;24.732;2023-08-06T00:19:49;98068.25;;;26.85;83.10
5755;BME280;2902;42.130;24.732;2023-08-06T00:22:16;98067.59;;;26.88;82.96
5755;BME280;2902;42.130;24.732;2023-08-06T00:24:43;98068.59;;;26.83;82.79
5755;BME280;2902;42.130;24.732;2023-08-06T00:27:09;98061.00;;;26.89;82.81
5755;BME280;2902;42.130;24.732;2023-08-06T00:29:36;98068.97;;;26.94;82.54
5755;BME280;2902;42.130;24.732;2023-08-06T00:32:03;98077.84;;;26.91;82.81
5755;BME280;2902;42.130;24.732;2023-08-06T00:34:30;98082.16;;;26.92;82.73
5755;BME280;2902;42.130;24.732;2023-08-06T00:36:58;98083.50;;;26.98;82.52
5755;BME280;2902;42.130;24.732;2023-08-06T00:39:24;98068.53;;;26.92;82.88
5755;BME280;2902;42.130;24.732;2023-08-06T00:41:51;98073.59;;;26.81;83.47
5755;BME280;2902;42.130;24.732;2023-08-06T00:44:18;98066.75;;;26.75;84.36
5755;BME280;2902;42.130;24.732;2023-08-06T00:46:44;98062.31;;;26.71;84.43
5755;BME280;2902;42.130;24.732;2023-08-06T00:49:11;98055.47;;;26.65;84.92
5755;BME280;2902;42.130;24.732;2023-08-06T00:51:38;98057.63;;;26.59;85.46
5755;BME280;2902;42.130;24.732;2023-08-06T00:54:06;98057.00;;;26.54;85.75
5755;BME280;2902;42.130;24.732;2023-08-06T00:56:34;98050.63;;;26.50;86.02
5755;BME280;2902;42.130;24.732;2023-08-06T00:59:02;98031.91;;;26.48;86.58
5755;BME280;2902;42.130;24.732;2023-08-06T01:01:29;98031.41;;;26.46;86.59
5755;BME280;2902;42.130;24.732;2023-08-06T01:03:56;98031.09;;;26.48;86.24
5755;BME280;2902;42.130;24.732;2023-08-06T01:06:33;98024.38;;;26.45;86.71
5755;BME280;2902;42.130;24.732;2023-08-06T01:09:07;98035.03;;;26.38;87.11
5755;BME280;2902;42.130;24.732;2023-08-06T01:11:47;98029.13;;;26.36;86.90
5755;BME280;2902;42.130;24.732;2023-08-06T01:14:20;98031.50;;;26.38;87.47
5755;BME280;2902;42.130;24.732;2023-08-06T01:16:50;98034.50;;;26.45;86.64
5755;BME280;2902;42.130;24.732;2023-08-06T01:19:17;98035.09;;;26.30;87.65
5755;BME280;2902;42.130;24.732;2023-08-06T01:21:45;98046.28;;;26.37;87.46
5755;BME280;2902;42.130;24.732;2023-08-06T01:24:12;98036.97;;;26.38;87.42
5755;BME280;2902;42.130;24.732;2023-08-06T01:26:43;98048.63;;;26.38;87.08
5755;BME280;2902;42.130;24.732;2023-08-06T01:29:14;98053.56;;;26.45;87.46
5755;BME280;2902;42.130;24.732;2023-08-06T01:31:43;98056.75;;;26.47;87.00
5755;BME280;2902;42.130;24.732;2023-08-06T01:34:13;98037.22;;;26.45;86.85
5755;BME280;2902;42.130;24.732;2023-08-06T01:36:43;98036.72;;;26.10;88.56
5755;BME280;2902;42.130;24.732;2023-08-06T01:39:12;98024.75;;;26.03;89.60
5755;BME280;2902;42.130;24.732;2023-08-06T01:41:39;98018.00;;;25.80;91.22
5755;BME280;2902;42.130;24.732;2023-08-06T01:44:06;98016.47;;;25.91;90.95
5755;BME280;2902;42.130;24.732;2023-08-06T01:46:32;98007.16;;;26.00;90.31
5755;BME280;2902;42.130;24.732;2023-08-06T01:48:59;98001.38;;;26.02;90.33
5755;BME280;2902;42.130;24.732;2023-08-06T01:51:26;98003.56;;;26.08;90.05
5755;BME280;2902;42.130;24.732;2023-08-06T01:53:52;98009.34;;;26.07;89.97
5755;BME280;2902;42.130;24.732;2023-08-06T01:56:21;98020.31;;;25.90;90.92
5755;BME280;2902;42.130;24.732;2023-08-06T01:58:47;98031.81;;;26.04;90.49
5755;BME280;2902;42.130;24.732;2023-08-06T02:01:14;98035.78;;;26.06;90.03
5755;BME280;2902;42.130;24.732;2023-08-06T02:03:41;98048.13;;;26.04;90.13
5755;BME280;2902;42.130;24.732;2023-08-06T02:06:07;98055.03;;;25.93;90.97
5755;BME280;2902;42.130;24.732;2023-08-06T02:08:34;98045.25;;;26.00;90.45
5755;BME280;2902;42.130;24.732;2023-08-06T02:11:01;98015.84;;;25.94;89.64
5755;BME280;2902;42.130;24.732;2023-08-06T02:13:29;98019.25;;;25.82;90.94
5755;BME280;2902;42.130;24.732;2023-08-06T02:15:56;98035.09;;;25.80;90.89
5755;BME280;2902;42.130;24.732;2023-08-06T02:18:22;98028.38;;;25.57;92.00
5755;BME280;2902;42.130;24.732;2023-08-06T02:20:55;98026.00;;;25.56;92.53
5755;BME280;2902;42.130;24.732;2023-08-06T02:23:22;98028.19;;;25.62;92.03
5755;BME280;2902;42.130;24.732;2023-08-06T02:25:56;98034.81;;;25.44;93.33
5755;BME280;2902;42.130;24.732;2023-08-06T02:28:23;98011.47;;;25.43;93.64
5755;BME280;2902;42.130;24.732;2023-08-06T02:30:52;98012.91;;;25.49;93.15
5755;BME280;2902;42.130;24.732;2023-08-06T02:33:18;98010.41;;;25.36;93.71
5755;BME280;2902;42.130;24.732;2023-08-06T02:35:45;98018.13;;;25.17;95.02
5755;BME280;2902;42.130;24.732;2023-08-06T02:38:12;98016.03;;;25.22;94.81
5755;BME280;2902;42.130;24.732;2023-08-06T02:40:43;98019.88;;;25.21;95.02
5755;BME280;2902;42.130;24.732;2023-08-06T02:43:10;98022.16;;;25.11;95.88
5755;BME280;2902;42.130;24.732;2023-08-06T02:45:37;98012.44;;;25.10;96.37
5755;BME280;2902;42.130;24.732;2023-08-06T02:48:05;98008.91;;;25.00;97.13
5755;BME280;2902;42.130;24.732;2023-08-06T02:50:37;98007.78;;;25.10;96.64
5755;BME280;2902;42.130;24.732;2023-08-06T02:53:04;98019.28;;;25.07;96.34
5755;BME280;2902;42.130;24.732;2023-08-06T02:55:31;98014.00;;;25.11;96.15
5755;BME280;2902;42.130;24.732;2023-08-06T02:57:59;98012.38;;;25.18;96.52
5755;BME280;2902;42.130;24.732;2023-08-06T03:00:26;98000.63;;;25.06;96.53
5755;BME280;2902;42.130;24.732;2023-08-06T03:02:52;98004.72;;;25.12;96.76
5755;BME280;2902;42.130;24.732;2023-08-06T03:05:20;98012.88;;;25.12;96.16
5755;BME280;2902;42.130;24.732;2023-08-06T03:07:47;98015.66;;;24.94;97.65
5755;BME280;2902;42.130;24.732;2023-08-06T03:10:14;98007.19;;;24.96;97.51
5755;BME280;2902;42.130;24.732;2023-08-06T03:12:40;98009.03;;;24.75;99.60
5755;BME280;2902;42.130;24.732;2023-08-06T03:15:08;98016.16;;;24.88;98.75
5755;BME280;2902;42.130;24.732;2023-08-06T03:17:35;98011.56;;;24.71;100.00
5755;BME280;2902;42.130;24.732;2023-08-06T03:20:02;98010.59;;;24.67;100.00
5755;BME280;2902;42.130;24.732;2023-08-06T03:22:30;98003.25;;;24.76;99.91
5755;BME280;2902;42.130;24.732;2023-08-06T03:24:57;98002.91;;;24.86;99.27
5755;BME280;2902;42.130;24.732;2023-08-06T03:27:23;98017.81;;;24.63;100.00
5755;BME280;2902;42.130;24.732;2023-08-06T03:29:50;98019.56;;;24.76;99.93
5755;BME280;2902;42.130;24.732;2023-08-06T03:32:17;98014.13;;;24.76;99.39
5755;BME280;2902;42.130;24.732;2023-08-06T03:34:43;98033.25;;;24.88;98.94
5755;BME280;2902;42.130;24.732;2023-08-06T03:37:10;98030.44;;;24.76;99.05
5755;BME280;2902;42.130;24.732;2023-08-06T03:39:38;98022.56;;;24.83;98.82
5755;BME280;2902;42.130;24.732;2023-08-06T03:42:05;98017.34;;;24.61;100.00
5755;BME280;2902;42.130;24.732;2023-08-06T03:44:32;98019.25;;;24.69;100.00
5755;BME280;2902;42.130;24.732;2023-08-06T03:46:59;98024.81;;;24.81;99.37
5755;BME280;2902;42.130;24.732;2023-08-06T03:49:25;98020.47;;;24.80;99.42
5755;BME280;2902;42.130;24.732;2023-08-06T03:51:52;98013.78;;;24.86;98.95
5755;BME280;2902;42.130;24.732;2023-08-06T03:54:18;98022.13;;;24.64;100.00
5755;BME280;2902;42.130;24.732;2023-08-06T03:56:46;98026.63;;;24.60;100.00
5755;BME280;2902;42.130;24.732;2023-08-06T03:59:13;98020.22;;;24.56;100.00
5755;BME280;2902;42.130;24.732;2023-08-06T04:01:40;98025.19;;;24.63;100.00
5755;BME280;2902;42.130;24.732;2023-08-06T04:04:07;98036.50;;;24.56;100.00
5755;BME280;2902;42.130;24.732;2023-08-06T04:06:33;98038.88;;;24.49;100.00
5755;BME280;2902;42.130;24.732;2023-08-06T04:09:00;98028.53;;;24.43;100.00
5755;BME280;2902;42.130;24.732;2023-08-06T04:11:27;98029.19;;;24.31;100.00
5755;BME280;2902;42.130;24.732;2023-08-06T04:13:55;98031.06;;;24.56;100.00
5755;BME280;2902;42.130;24.732;2023-08-06T04:16:21;98029.16;;;24.65;100.00
5755;BME280;2902;42.130;24.732;2023-08-06T04:18:48;98032.19;;;24.72;100.00
5755;BME280;2902;42.130;24.732;2023-08-06T04:21:15;98033.59;;;24.78;100.00
5755;BME280;2902;42.130;24.732;2023-08-06T04:23:41;98040.31;;;24.89;100.00
5755;BME280;2902;42.130;24.732;2023-08-06T04:26:08;98043.47;;;25.00;99.54
5755;BME280;2902;42.130;24.732;2023-08-06T04:28:35;98053.53;;;24.99;98.97
5755;BME280;2902;42.130;24.732;2023-08-06T04:31:03;98054.78;;;25.02;98.42
5755;BME280;2902;42.130;24.732;2023-08-06T04:33:29;98054.97;;;25.06;98.70
5755;BME280;2902;42.130;24.732;2023-08-06T04:35:56;98049.97;;;25.16;98.70
5755;BME280;2902;42.130;24.732;2023-08-06T04:38:24;98046.09;;;25.34;98.02
5755;BME280;2902;42.130;24.732;2023-08-06T04:40:51;98042.66;;;25.46;96.88
5755;BME280;2902;42.130;24.732;2023-08-06T04:43:18;98026.94;;;25.60;96.32
5755;BME280;2902;42.130;24.732;2023-08-06T04:45:48;98024.03;;;25.56;94.95
5755;BME280;2902;42.130;24.732;2023-08-06T04:48:17;98039.09;;;25.54;95.26
5755;BME280;2902;42.130;24.732;2023-08-06T04:50:44;98031.84;;;25.66;95.15
5755;BME280;2902;42.130;24.732;2023-08-06T04:53:11;98042.84;;;25.70;94.77
5755;BME280;2902;42.130;24.732;2023-08-06T04:55:38;98049.75;;;25.67;94.66
5755;BME280;2902;42.130;24.732;2023-08-06T04:58:05;98033.19;;;25.81;94.49
5755;BME280;2902;42.130;24.732;2023-08-06T05:00:32;98031.97;;;25.99;93.03
5755;BME280;2902;42.130;24.732;2023-08-06T05:03:00;98041.56;;;26.05;92.19
5755;BME280;2902;42.130;24.732;2023-08-06T05:05:28;98062.25;;;26.18;91.52
5755;BME280;2902;42.130;24.732;2023-08-06T05:07:56;98061.94;;;26.19;90.90
5755;BME280;2902;42.130;24.732;2023-08-06T05:10:24;98048.66;;;26.18;91.19
5755;BME280;2902;42.130;24.732;2023-08-06T05:12:51;98046.59;;;26.15;91.13
5755;BME280;2902;42.130;24.732;2023-08-06T05:15:18;98049.31;;;26.15;91.20
5755;BME280;2902;42.130;24.732;2023-08-06T05:17:44;98038.41;;;26.15;91.13
5755;BME280;2902;42.130;24.732;2023-08-06T05:20:11;98044.94;;;26.02;91.70
5755;BME280;2902;42.130;24.732;2023-08-06T05:22:39;98058.94;;;25.83;92.32
5755;BME280;2902;42.130;24.732;2023-08-06T05:25:07;98061.13;;;25.69;92.59
5755;BME280;2902;42.130;24.732;2023-08-06T05:27:33;98069.22;;;25.49;89.81
5755;BME280;2902;42.130;24.732;2023-08-06T05:30:00;98062.56;;;25.21;88.29
5755;BME280;2902;42.130;24.732;2023-08-06T05:32:27;98036.88;;;25.10;88.90
5755;BME280;2902;42.130;24.732;2023-08-06T05:34:53;98030.13;;;25.24;89.83
5755;BME280;2902;42.130;24.732;2023-08-06T05:37:20;98038.91;;;25.21;90.31
5755;BME280;2902;42.130;24.732;2023-08-06T05:39:48;98040.97;;;25.24;90.75
5755;BME280;2902;42.130;24.732;2023-08-06T05:42:15;98038.25;;;25.33;91.26
5755;BME280;2902;42.130;24.732;2023-08-06T05:44:42;98039.28;;;25.02;90.01
5755;BME280;2902;42.130;24.732;2023-08-06T05:47:09;98032.59;;;24.91;91.08
5755;BME280;2902;42.130;24.732;2023-08-06T05:49:36;98026.25;;;24.79;92.23
5755;BME280;2902;42.130;24.732;2023-08-06T05:52:03;98013.97;;;24.73;91.96
5755;BME280;2902;42.130;24.732;2023-08-06T05:54:31;98023.09;;;24.68;92.16
5755;BME280;2902;42.130;24.732;2023-08-06T05:56:59;98031.25;;;24.68;91.51
5755;BME280;2902;42.130;24.732;2023-08-06T05:59:26;98019.53;;;24.59;92.54
5755;BME280;2902;42.130;24.732;2023-08-06T06:01:53;98018.59;;;24.55;92.98
5755;BME280;2902;42.130;24.732;2023-08-06T06:04:20;98018.75;;;24.59;93.39
5755;BME280;2902;42.130;24.732;2023-08-06T06:06:46;98015.91;;;24.64;97.10
5755;BME280;2902;42.130;24.732;2023-08-06T06:09:13;98010.94;;;24.57;96.72
5755;BME280;2902;42.130;24.732;2023-08-06T06:11:40;98014.91;;;24.60;96.56
5755;BME280;2902;42.130;24.732;2023-08-06T06:14:08;98015.91;;;24.64;96.65
5755;BME280;2902;42.130;24.732;2023-08-06T06:16:34;98027.38;;;24.78;96.69
5755;BME280;2902;42.130;24.732;2023-08-06T06:19:01;98012.88;;;25.12;95.47
5755;BME280;2902;42.130;24.732;2023-08-06T06:21:28;98013.50;;;25.17;95.28
5755;BME280;2902;42.130;24.732;2023-08-06T06:23:54;98018.75;;;25.22;94.66
5755;BME280;2902;42.130;24.732;2023-08-06T06:26:22;98013.00;;;25.24;94.06
5755;BME280;2902;42.130;24.732;2023-08-06T06:28:48;98015.72;;;25.32;94.92
5755;BME280;2902;42.130;24.732;2023-08-06T06:31:16;98014.50;;;25.50;93.82
5755;BME280;2902;42.130;24.732;2023-08-06T06:33:43;98027.47;;;25.74;91.77
5755;BME280;2902;42.130;24.732;2023-08-06T06:36:10;98039.28;;;26.07;90.57
5755;BME280;2902;42.130;24.732;2023-08-06T06:38:37;98044.59;;;26.24;89.80
5755;BME280;2902;42.130;24.732;2023-08-06T06:41:04;98045.06;;;26.26;89.52
5755;BME280;2902;42.130;24.732;2023-08-06T06:43:31;98044.00;;;26.39;89.22
5755;BME280;2902;42.130;24.732;2023-08-06T06:45:58;98028.84;;;26.50;88.28
5755;BME280;2902;42.130;24.732;2023-08-06T06:48:27;98024.97;;;26.51;88.49
5755;BME280;2902;42.130;24.732;2023-08-06T06:50:54;98026.53;;;26.60;89.53
5755;BME280;2902;42.130;24.732;2023-08-06T06:53:21;98016.09;;;26.62;89.09
5755;BME280;2902;42.130;24.732;2023-08-06T06:55:55;98029.59;;;26.59;89.49
5755;BME280;2902;42.130;24.732;2023-08-06T06:58:22;98036.97;;;26.38;88.30
5755;BME280;2902;42.130;24.732;2023-08-06T07:00:48;98029.72;;;26.21;91.50
5755;BME280;2902;42.130;24.732;2023-08-06T07:03:15;98017.72;;;26.22;90.84
5755;BME280;2902;42.130;24.732;2023-08-06T07:05:44;98031.72;;;26.33;89.62
5755;BME280;2902;42.130;24.732;2023-08-06T07:08:11;98044.00;;;26.18;87.14
5755;BME280;2902;42.130;24.732;2023-08-06T07:10:38;98042.94;;;26.11;88.23
5755;BME280;2902;42.130;24.732;2023-08-06T07:13:04;98046.72;;;25.98;87.38
5755;BME280;2902;42.130;24.732;2023-08-06T07:15:32;98059.22;;;25.90;88.29
5755;BME280;2902;42.130;24.732;2023-08-06T07:17:59;98049.91;;;26.00;90.12
5755;BME280;2902;42.130;24.732;2023-08-06T07:20:28;98062.22;;;26.26;89.00
5755;BME280;2902;42.130;24.732;2023-08-06T07:22:58;98054.22;;;26.42;86.82
5755;BME280;2902;42.130;24.732;2023-08-06T07:25:25;98058.81;;;26.50;84.53
5755;BME280;2902;42.130;24.732;2023-08-06T07:27:52;98078.88;;;26.66;85.24
5755;BME280;2902;42.130;24.732;2023-08-06T07:30:18;98097.09;;;26.74;83.88
5755;BME280;2902;42.130;24.732;2023-08-06T07:32:45;98093.50;;;26.94;82.88
5755;BME280;2902;42.130;24.732;2023-08-06T07:35:12;98084.41;;;27.22;84.00
5755;BME280;2902;42.130;24.732;2023-08-06T07:37:39;98079.03;;;27.58;79.88
5755;BME280;2902;42.130;24.732;2023-08-06T07:40:08;98068.00;;;27.91;78.97
5755;BME280;2902;42.130;24.732;2023-08-06T07:42:35;98073.66;;;28.10;78.37
5755;BME280;2902;42.130;24.732;2023-08-06T07:45:02;98068.97;;;28.10;78.36
5755;BME280;2902;42.130;24.732;2023-08-06T07:47:29;98087.50;;;28.41;76.50
5755;BME280;2902;42.130;24.732;2023-08-06T07:49:56;98082.28;;;28.12;76.21
5755;BME280;2902;42.130;24.732;2023-08-06T07:52:23;98071.84;;;27.54;77.53
5755;BME280;2902;42.130;24.732;2023-08-06T07:54:49;98071.59;;;27.23;80.45
5755;BME280;2902;42.130;24.732;2023-08-06T07:57:17;98074.78;;;27.37;80.23
5755;BME280;2902;42.130;24.732;2023-08-06T07:59:44;98076.47;;;26.97;82.00
5755;BME280;2902;42.130;24.732;2023-08-06T08:02:11;98079.06;;;26.40;81.76
5755;BME280;2902;42.130;24.732;2023-08-06T08:04:37;98091.47;;;26.09;82.94
5755;BME280;2902;42.130;24.732;2023-08-06T08:07:04;98099.44;;;25.85;84.20
5755;BME280;2902;42.130;24.732;2023-08-06T08:09:31;98095.28;;;25.79;85.50
5755;BME280;2902;42.130;24.732;2023-08-06T08:11:58;98076.94;;;25.67;85.29
5755;BME280;2902;42.130;24.732;2023-08-06T08:14:27;98081.72;;;25.41;87.72
5755;BME280;2902;42.130;24.732;2023-08-06T08:16:58;98085.25;;;25.25;88.85
5755;BME280;2902;42.130;24.732;2023-08-06T08:19:25;98084.84;;;25.06;90.28
5755;BME280;2902;42.130;24.732;2023-08-06T08:21:53;98081.63;;;25.12;91.67
5755;BME280;2902;42.130;24.732;2023-08-06T08:24:20;98077.66;;;25.10;91.77
5755;BME280;2902;42.130;24.732;2023-08-06T08:26:49;98080.06;;;25.02;91.48
5755;BME280;2902;42.130;24.732;2023-08-06T08:29:15;98078.28;;;25.07;92.89
5755;BME280;2902;42.130;24.732;2023-08-06T08:31:43;98082.59;;;24.99;93.53
5755;BME280;2902;42.130;24.732;2023-08-06T08:34:11;98089.16;;;25.07;93.68
5755;BME280;2902;42.130;24.732;2023-08-06T08:36:38;98073.31;;;25.08;92.84
5755;BME280;2902;42.130;24.732;2023-08-06T08:39:04;98064.97;;;25.22;92.43
5755;BME280;2902;42.130;24.732;2023-08-06T08:41:33;98010.28;;;24.77;89.76
5755;BME280;2902;42.130;24.732;2023-08-06T08:44:00;98062.75;;;25.07;89.64
5755;BME280;2902;42.130;24.732;2023-08-06T08:46:27;98072.66;;;25.12;89.28
5755;BME280;2902;42.130;24.732;2023-08-06T08:48:58;98075.56;;;25.07;89.13
5755;BME280;2902;42.130;24.732;2023-08-06T08:51:27;98075.38;;;25.12;87.84
5755;BME280;2902;42.130;24.732;2023-08-06T08:53:55;98075.34;;;25.29;86.49
5755;BME280;2902;42.130;24.732;2023-08-06T08:56:23;98074.28;;;25.59;87.13
5755;BME280;2902;42.130;24.732;2023-08-06T08:58:50;98043.88;;;25.57;86.05
5755;BME280;2902;42.130;24.732;2023-08-06T09:01:19;98051.22;;;25.85;85.42
5755;BME280;2902;42.130;24.732;2023-08-06T09:03:47;98068.50;;;26.39;83.74
5755;BME280;2902;42.130;24.732;2023-08-06T09:06:17;98070.47;;;27.03;80.32
5755;BME280;2902;42.130;24.732;2023-08-06T09:08:49;98062.06;;;27.53;77.81
5755;BME280;2902;42.130;24.732;2023-08-06T09:11:19;98059.09;;;28.06;75.86
5755;BME280;2902;42.130;24.732;2023-08-06T09:13:47;98047.63;;;28.52;73.07
5755;BME280;2902;42.130;24.732;2023-08-06T09:16:14;98046.94;;;28.98;69.09
5755;BME280;2902;42.130;24.732;2023-08-06T09:18:41;98034.13;;;29.45;68.31
5755;BME280;2902;42.130;24.732;2023-08-06T09:21:15;98063.59;;;29.98;65.00
5755;BME280;2902;42.130;24.732;2023-08-06T09:23:42;98059.69;;;30.34;61.53
5755;BME280;2902;42.130;24.732;2023-08-06T09:26:11;98036.34;;;30.59;60.85
5755;BME280;2902;42.130;24.732;2023-08-06T09:28:39;98058.56;;;30.54;58.43
5755;BME280;2902;42.130;24.732;2023-08-06T09:31:08;98058.56;;;30.73;58.84
5755;BME280;2902;42.130;24.732;2023-08-06T09:33:36;98038.28;;;30.77;59.30
5755;BME280;2902;42.130;24.732;2023-08-06T09:36:10;98057.31;;;31.08;57.08
5755;BME280;2902;42.130;24.732;2023-08-06T09:38:40;98035.75;;;30.88;58.13
5755;BME280;2902;42.130;24.732;2023-08-06T09:41:08;98058.38;;;31.23;56.84
5755;BME280;2902;42.130;24.732;2023-08-06T09:43:41;98050.38;;;30.95;57.98
5755;BME280;2902;42.130;24.732;2023-08-06T09:46:12;98051.06;;;31.11;57.01
5755;BME280;2902;42.130;24.732;2023-08-06T09:48:50;98047.38;;;31.00;54.73
5755;BME280;2902;42.130;24.732;2023-08-06T09:51:17;98031.44;;;31.09;56.27
5755;BME280;2902;42.130;24.732;2023-08-06T09:53:47;98058.78;;;31.47;53.93
5755;BME280;2902;42.130;24.732;2023-08-06T09:56:17;98056.19;;;31.77;53.47
5755;BME280;2902;42.130;24.732;2023-08-06T09:58:45;98033.19;;;31.88;52.90
5755;BME280;2902;42.130;24.732;2023-08-06T10:01:14;98061.06;;;32.16;50.14
5755;BME280;2902;42.130;24.732;2023-08-06T10:03:43;98058.03;;;31.95;47.11
5755;BME280;2902;42.130;24.732;2023-08-06T10:06:11;98039.75;;;31.80;48.02
5755;BME280;2902;42.130;24.732;2023-08-06T10:08:38;98052.56;;;31.99;46.26
5755;BME280;2902;42.130;24.732;2023-08-06T10:11:11;98016.38;;;31.93;47.65
5755;BME280;2902;42.130;24.732;2023-08-06T10:13:38;98014.34;;;32.16;46.49
5755;BME280;2902;42.130;24.732;2023-08-06T10:16:06;97991.31;;;31.72;46.19
5755;BME280;2902;42.130;24.732;2023-08-06T10:18:33;98014.56;;;32.30;45.38
5755;BME280;2902;42.130;24.732;2023-08-06T10:21:02;98015.50;;;32.41;43.17
5755;BME280;2902;42.130;24.732;2023-08-06T10:23:36;97978.28;;;32.21;44.11
5755;BME280;2902;42.130;24.732;2023-08-06T10:26:04;98006.53;;;32.48;43.30
5755;BME280;2902;42.130;24.732;2023-08-06T10:28:36;98009.31;;;32.51;43.21
5755;BME280;2902;42.130;24.732;2023-08-06T10:31:03;97999.44;;;32.17;42.53
5755;BME280;2902;42.130;24.732;2023-08-06T10:33:43;97994.28;;;32.12;42.56
5755;BME280;2902;42.130;24.732;2023-08-06T10:36:11;97997.03;;;32.12;43.47
5755;BME280;2902;42.130;24.732;2023-08-06T10:38:45;98002.25;;;32.50;42.17
5755;BME280;2902;42.130;24.732;2023-08-06T10:41:16;98011.94;;;32.41;42.75
5755;BME280;2902;42.130;24.732;2023-08-06T10:43:47;97998.06;;;32.63;41.36
5755;BME280;2902;42.130;24.732;2023-08-06T10:46:23;98004.38;;;33.00;40.41
5755;BME280;2902;42.130;24.732;2023-08-06T10:48:50;98019.22;;;32.92;39.42
5755;BME280;2902;42.130;24.732;2023-08-06T10:51:17;98009.25;;;32.44;39.52
5755;BME280;2902;42.130;24.732;2023-08-06T10:53:45;98008.84;;;32.79;39.33
5755;BME280;2902;42.130;24.732;2023-08-06T10:56:12;98024.16;;;32.76;39.19
5755;BME280;2902;42.130;24.732;2023-08-06T10:58:39;98027.13;;;32.94;38.66
5755;BME280;2902;42.130;24.732;2023-08-06T11:01:08;98026.13;;;33.12;38.25
5755;BME280;2902;42.130;24.732;2023-08-06T11:03:35;98019.69;;;33.38;39.61
5755;BME280;2902;42.130;24.732;2023-08-06T11:06:02;98012.69;;;33.48;38.33
5755;BME280;2902;42.130;24.732;2023-08-06T11:08:34;98007.13;;;33.41;38.23
5755;BME280;2902;42.130;24.732;2023-08-06T11:11:08;98007.13;;;33.41;38.28
5755;BME280;2902;42.130;24.732;2023-08-06T11:13:36;98018.44;;;33.76;37.66
5755;BME280;2902;42.130;24.732;2023-08-06T11:16:03;98013.47;;;33.99;36.74
5755;BME280;2902;42.130;24.732;2023-08-06T11:18:32;98029.66;;;34.07;36.85
5755;BME280;2902;42.130;24.732;2023-08-06T11:20:59;98029.66;;;34.04;36.40
5755;BME280;2902;42.130;24.732;2023-08-06T11:23:26;98026.22;;;34.21;36.24
5755;BME280;2902;42.130;24.732;2023-08-06T11:25:54;98021.97;;;34.34;35.30
5755;BME280;2902;42.130;24.732;2023-08-06T11:28:21;98025.81;;;34.26;35.60
5755;BME280;2902;42.130;24.732;2023-08-06T11:30:47;98024.97;;;34.08;35.01
5755;BME280;2902;42.130;24.732;2023-08-06T11:33:14;98033.63;;;34.13;36.03
5755;BME280;2902;42.130;24.732;2023-08-06T11:35:42;98022.63;;;34.17;35.85
5755;BME280;2902;42.130;24.732;2023-08-06T11:38:09;98021.41;;;34.11;35.11
5755;BME280;2902;42.130;24.732;2023-08-06T11:40:36;98024.22;;;34.18;36.08
5755;BME280;2902;42.130;24.732;2023-08-06T11:43:02;98023.00;;;34.12;35.69
5755;BME280;2902;42.130;24.732;2023-08-06T11:45:30;98028.63;;;33.72;35.36
5755;BME280;2902;42.130;24.732;2023-08-06T11:47:56;98023.50;;;33.74;37.07
5755;BME280;2902;42.130;24.732;2023-08-06T11:50:24;98027.75;;;33.61;37.14
5755;BME280;2902;42.130;24.732;2023-08-06T11:52:54;98024.59;;;33.59;37.31
5755;BME280;2902;42.130;24.732;2023-08-06T11:55:23;98014.19;;;33.35;36.81
5755;BME280;2902;42.130;24.732;2023-08-06T11:57:50;98027.31;;;33.15;36.58
5755;BME280;2902;42.130;24.732;2023-08-06T12:00:18;98017.84;;;33.12;37.17
5755;BME280;2902;42.130;24.732;2023-08-06T12:02:48;98017.84;;;33.12;36.73
5755;BME280;2902;42.130;24.732;2023-08-06T12:05:18;98026.69;;;32.88;36.80
5755;BME280;2902;42.130;24.732;2023-08-06T12:07:47;98028.50;;;32.77;38.04
5755;BME280;2902;42.130;24.732;2023-08-06T12:10:16;98034.41;;;32.79;38.13
5755;BME280;2902;42.130;24.732;2023-08-06T12:12:45;98034.72;;;32.74;37.48
5755;BME280;2902;42.130;24.732;2023-08-06T12:15:11;98036.28;;;32.72;38.08
5755;BME280;2902;42.130;24.732;2023-08-06T12:17:38;98035.41;;;32.64;36.42
5755;BME280;2902;42.130;24.732;2023-08-06T12:20:07;98036.19;;;32.65;37.42
5755;BME280;2902;42.130;24.732;2023-08-06T12:22:34;98033.03;;;32.63;38.59
5755;BME280;2902;42.130;24.732;2023-08-06T12:25:01;98036.91;;;32.58;38.00
5755;BME280;2902;42.130;24.732;2023-08-06T12:27:30;98015.19;;;32.20;38.46
5755;BME280;2902;42.130;24.732;2023-08-06T12:29:56;98022.94;;;32.11;38.70
5755;BME280;2902;42.130;24.732;2023-08-06T12:32:23;98027.53;;;32.04;38.13
5755;BME280;2902;42.130;24.732;2023-08-06T12:34:50;98026.38;;;32.05;37.60
5755;BME280;2902;42.130;24.732;2023-08-06T12:37:16;98026.75;;;32.03;38.57
5755;BME280;2902;42.130;24.732;2023-08-06T12:39:43;98025.44;;;31.94;38.31
5755;BME280;2902;42.130;24.732;2023-08-06T12:42:10;98021.78;;;31.86;39.05
5755;BME280;2902;42.130;24.732;2023-08-06T12:44:38;98030.13;;;31.93;37.91
5755;BME280;2902;42.130;24.732;2023-08-06T12:47:06;98010.59;;;31.98;39.50
5755;BME280;2902;42.130;24.732;2023-08-06T12:49:33;98011.72;;;31.97;38.45
5755;BME280;2902;42.130;24.732;2023-08-06T12:52:00;98020.47;;;32.06;38.48
5755;BME280;2902;42.130;24.732;2023-08-06T12:54:27;98031.19;;;31.85;38.03
5755;BME280;2902;42.130;24.732;2023-08-06T12:56:54;98025.16;;;32.02;37.38
5755;BME280;2902;42.130;24.732;2023-08-06T12:59:21;98026.44;;;32.12;38.45
5755;BME280;2902;42.130;24.732;2023-08-06T13:01:50;98026.81;;;32.10;38.20
5755;BME280;2902;42.130;24.732;2023-08-06T13:04:17;98029.03;;;31.98;37.33
5755;BME280;2902;42.130;24.732;2023-08-06T13:06:43;98040.63;;;31.88;38.17
5755;BME280;2902;42.130;24.732;2023-08-06T13:09:10;98031.19;;;31.85;37.53
5755;BME280;2902;42.130;24.732;2023-08-06T13:11:38;98041.94;;;31.97;38.48